createdAt,value
2022-11-18T00:01:30.790Z,1.40
2022-11-18T00:03:59.178Z,1.40
2022-11-18T00:06:30.578Z,1.30
2022-11-18T00:09:01.013Z,1.30
2022-11-18T00:11:47.885Z,1.30
2022-11-18T00:14:23.264Z,1.20
2022-11-18T00:16:56.849Z,1.20
2022-11-18T00:19:27.325Z,1.10
2022-11-18T00:21:57.646Z,1.10
2022-11-18T00:24:26.668Z,1.00
2022-11-18T00:26:55.804Z,1.00
2022-11-18T00:29:26.469Z,1.00
2022-11-18T00:31:55.134Z,1.00
2022-11-18T00:34:23.415Z,1.00
2022-11-18T00:36:52.084Z,1.00
2022-11-18T00:39:22.880Z,1.00
2022-11-18T00:42:09.219Z,1.00
2022-11-18T00:44:37.463Z,1.00
2022-11-18T00:47:06.281Z,1.00
2022-11-18T00:49:34.498Z,1.10
2022-11-18T00:52:03.060Z,1.20
2022-11-18T00:54:32.699Z,1.20
2022-11-18T00:57:01.271Z,1.30
2022-11-18T00:59:29.499Z,1.30
2022-11-18T01:01:58.229Z,1.30
2022-11-18T01:04:26.732Z,1.40
2022-11-18T01:06:55.315Z,1.40
2022-11-18T01:09:23.677Z,1.30
2022-11-18T01:12:25.827Z,1.30
2022-11-18T01:14:54.245Z,1.40
2022-11-18T01:17:23.159Z,1.40
2022-11-18T01:19:51.823Z,1.40
2022-11-18T01:22:20.422Z,1.40
2022-11-18T01:24:48.967Z,1.40
2022-11-18T01:27:19.085Z,1.40
2022-11-18T01:29:47.369Z,1.50
2022-11-18T01:32:24.954Z,1.40
2022-11-18T01:34:53.948Z,1.40
2022-11-18T01:37:22.702Z,1.50
2022-11-18T01:39:51.011Z,1.50
2022-11-18T01:42:21.005Z,1.60
2022-11-18T01:45:09.721Z,1.60
2022-11-18T01:47:43.517Z,1.60
2022-11-18T01:50:14.150Z,1.70
2022-11-18T01:52:48.776Z,1.60
2022-11-18T01:55:24.404Z,1.60
2022-11-18T01:58:03.457Z,1.60
2022-11-18T02:00:32.044Z,1.60
2022-11-18T02:03:02.220Z,1.60
2022-11-18T02:05:31.881Z,1.60
2022-11-18T02:08:02.161Z,1.70
2022-11-18T02:10:30.712Z,1.60
2022-11-18T02:13:01.299Z,1.60
2022-11-18T02:15:44.630Z,1.60
2022-11-18T02:18:19.439Z,1.60
2022-11-18T02:20:51.452Z,1.50
2022-11-18T02:23:54.800Z,1.50
2022-11-18T02:26:40.107Z,1.50
2022-11-18T02:29:13.330Z,1.50
2022-11-18T02:31:49.308Z,1.40
2022-11-18T02:34:27.635Z,1.40
2022-11-18T02:37:01.195Z,1.30
2022-11-18T02:39:35.980Z,1.20
2022-11-18T02:42:07.118Z,1.20
2022-11-18T02:44:40.505Z,1.20
2022-11-18T02:47:12.692Z,1.20
2022-11-18T02:49:46.784Z,1.10
2022-11-18T02:52:17.637Z,1.20
2022-11-18T02:54:49.098Z,1.20
2022-11-18T02:57:18.371Z,1.20
2022-11-18T02:59:48.664Z,1.30
2022-11-18T03:02:18.572Z,1.20
2022-11-18T03:04:48.893Z,1.20
2022-11-18T03:07:23.017Z,1.20
2022-11-18T03:09:53.835Z,1.20
2022-11-18T03:12:31.586Z,1.20
2022-11-18T03:15:13.085Z,1.30
2022-11-18T03:17:48.834Z,1.30
2022-11-18T03:20:23.610Z,1.30
2022-11-18T03:22:56.455Z,1.30
2022-11-18T03:25:31.779Z,1.30
2022-11-18T03:28:07.332Z,1.30
2022-11-18T03:30:41.788Z,1.30
2022-11-18T03:33:14.251Z,1.30
2022-11-18T03:35:47.827Z,1.20
2022-11-18T03:38:19.595Z,1.30
2022-11-18T03:40:54.057Z,1.20
2022-11-18T03:43:26.626Z,1.30
2022-11-18T03:46:01.050Z,1.20
2022-11-18T03:48:32.262Z,1.20
2022-11-18T03:51:06.898Z,1.10
2022-11-18T03:53:39.371Z,1.10
2022-11-18T03:56:17.118Z,1.00
2022-11-18T03:58:52.585Z,1.00
2022-11-18T04:01:27.503Z,1.00
2022-11-18T04:03:56.115Z,0.90
2022-11-18T04:06:32.284Z,0.90
2022-11-18T04:09:04.513Z,0.90
2022-11-18T04:11:55.766Z,0.90
2022-11-18T04:14:24.383Z,0.90
2022-11-18T04:16:54.992Z,0.80
2022-11-18T04:19:23.680Z,0.80
2022-11-18T04:21:52.382Z,0.80
2022-11-18T04:24:20.716Z,0.80
2022-11-18T04:26:49.389Z,0.80
2022-11-18T04:29:18.284Z,0.80
2022-11-18T04:31:47.036Z,0.80
2022-11-18T04:34:17.029Z,0.80
2022-11-18T04:36:45.587Z,0.80
2022-11-18T04:39:14.066Z,0.80
2022-11-18T04:41:58.000Z,0.70
2022-11-18T04:44:28.132Z,0.70
2022-11-18T04:46:58.205Z,0.70
2022-11-18T04:49:28.422Z,0.70
2022-11-18T04:51:57.808Z,0.70
2022-11-18T04:54:27.600Z,0.60
2022-11-18T04:56:57.542Z,0.60
2022-11-18T04:59:28.650Z,0.60
2022-11-18T05:01:58.000Z,0.60
2022-11-18T05:04:30.137Z,0.60
2022-11-18T05:06:59.411Z,0.60
2022-11-18T05:09:31.747Z,0.60
2022-11-18T05:12:18.235Z,0.60
2022-11-18T05:14:50.124Z,0.60
2022-11-18T05:17:20.229Z,0.70
2022-11-18T05:19:50.112Z,0.70
2022-11-18T05:22:18.852Z,0.80
2022-11-18T05:24:47.436Z,0.80
2022-11-18T05:27:16.819Z,0.80
2022-11-18T05:29:45.549Z,0.90
2022-11-18T05:32:14.089Z,0.90
2022-11-18T05:34:43.437Z,0.90
2022-11-18T05:37:13.608Z,0.90
2022-11-18T05:39:42.043Z,0.90
2022-11-18T05:42:29.793Z,1.10
2022-11-18T05:44:59.002Z,1.00
2022-11-18T05:47:28.704Z,1.00
2022-11-18T05:49:57.193Z,1.00
2022-11-18T05:52:27.199Z,1.00
2022-11-18T05:54:55.557Z,0.80
2022-11-18T05:57:24.094Z,1.00
2022-11-18T05:59:52.420Z,1.00
2022-11-18T06:02:25.084Z,1.00
2022-11-18T06:04:58.089Z,1.10
2022-11-18T06:07:33.507Z,1.00
2022-11-18T06:10:05.767Z,1.10
2022-11-18T06:12:40.227Z,1.10
2022-11-18T06:15:13.197Z,1.10
2022-11-18T06:17:45.065Z,1.20
2022-11-18T06:20:14.020Z,1.20
2022-11-18T06:22:46.729Z,1.20
2022-11-18T06:25:15.924Z,1.30
2022-11-18T06:27:45.493Z,1.20
2022-11-18T06:30:15.073Z,1.30
2022-11-18T06:32:46.560Z,1.30
2022-11-18T06:35:15.137Z,1.30
2022-11-18T06:37:45.463Z,1.30
2022-11-18T06:40:14.242Z,1.40
2022-11-18T06:43:00.206Z,1.60
2022-11-18T06:45:28.678Z,1.40
2022-11-18T06:47:57.678Z,1.40
2022-11-18T06:50:26.122Z,1.30
2022-11-18T06:52:56.213Z,1.30
2022-11-18T06:55:24.582Z,1.30
2022-11-18T06:57:53.293Z,1.20
2022-11-18T07:00:21.977Z,1.20
2022-11-18T07:02:50.594Z,1.20
2022-11-18T07:05:18.871Z,1.20
2022-11-18T07:07:47.472Z,1.10
2022-11-18T07:10:17.759Z,1.20
2022-11-18T07:12:46.595Z,1.20
2022-11-18T07:15:15.147Z,1.20
2022-11-18T07:17:43.800Z,1.20
2022-11-18T07:20:12.716Z,1.20
2022-11-18T07:22:41.459Z,1.30
2022-11-18T07:25:10.794Z,1.40
2022-11-18T07:27:40.913Z,1.40
2022-11-18T07:30:10.226Z,1.60
2022-11-18T07:32:38.875Z,1.50
2022-11-18T07:35:08.184Z,1.50
2022-11-18T07:37:36.967Z,1.60
2022-11-18T07:40:06.290Z,1.60
2022-11-18T07:42:42.812Z,1.70
2022-11-18T07:45:13.495Z,1.70
2022-11-18T07:47:42.294Z,1.70
2022-11-18T07:50:11.040Z,1.70
2022-11-18T07:52:39.776Z,1.70
2022-11-18T07:55:08.919Z,1.70
2022-11-18T07:57:37.635Z,1.70
2022-11-18T08:00:06.858Z,1.70
2022-11-18T08:02:36.870Z,1.80
2022-11-18T08:05:05.755Z,1.80
2022-11-18T08:07:34.565Z,1.90
2022-11-18T08:10:03.548Z,1.90
2022-11-18T08:12:32.325Z,2.00
2022-11-18T08:15:00.831Z,2.10
2022-11-18T08:17:29.647Z,2.20
2022-11-18T08:19:59.282Z,2.30
2022-11-18T08:22:27.948Z,2.30
2022-11-18T08:24:56.237Z,2.30
2022-11-18T08:27:24.888Z,2.40
2022-11-18T08:29:53.318Z,2.40
2022-11-18T08:32:22.008Z,2.50
2022-11-18T08:34:51.795Z,2.50
2022-11-18T08:37:21.872Z,2.50
2022-11-18T08:39:50.299Z,2.40
2022-11-18T08:42:24.322Z,2.40
2022-11-18T08:44:53.282Z,2.40
2022-11-18T08:47:22.075Z,2.40
2022-11-18T08:49:50.672Z,2.40
2022-11-18T08:52:19.219Z,2.30
2022-11-18T08:54:49.007Z,2.40
2022-11-18T08:57:17.663Z,2.40
2022-11-18T08:59:46.043Z,2.40
2022-11-18T09:02:15.824Z,2.40
2022-11-18T09:04:44.288Z,2.50
2022-11-18T09:07:12.959Z,2.50
2022-11-18T09:09:41.579Z,2.60
2022-11-18T09:12:14.879Z,2.60
2022-11-18T09:17:32.551Z,2.70
2022-11-18T09:20:19.376Z,2.70
2022-11-18T09:22:47.759Z,2.80
2022-11-18T09:25:17.042Z,2.80
2022-11-18T09:27:47.759Z,2.90
2022-11-18T09:30:16.695Z,2.90
2022-11-18T09:32:45.273Z,2.90
2022-11-18T09:35:14.430Z,3.00
2022-11-18T09:37:42.653Z,3.00
2022-11-18T09:40:17.328Z,3.00
2022-11-18T09:42:56.957Z,3.00
2022-11-18T09:45:29.488Z,3.10
2022-11-18T09:48:00.086Z,3.10
2022-11-18T09:53:21.307Z,3.20
2022-11-18T09:55:51.403Z,3.30
2022-11-18T09:58:27.244Z,3.40
2022-11-18T10:00:55.970Z,3.50
2022-11-18T10:03:29.105Z,3.50
2022-11-18T10:06:07.175Z,3.50
2022-11-18T10:08:42.392Z,3.50
2022-11-18T10:11:16.268Z,3.50
2022-11-18T10:13:55.773Z,3.40
2022-11-18T10:16:37.027Z,3.40
2022-11-18T10:19:19.126Z,3.40
2022-11-18T10:21:57.170Z,3.40
2022-11-18T10:24:26.766Z,3.30
2022-11-18T10:26:57.611Z,3.50
2022-11-18T10:29:28.088Z,3.50
2022-11-18T10:32:05.829Z,3.60
2022-11-18T10:34:36.015Z,3.60
2022-11-18T10:37:06.696Z,3.60
2022-11-18T10:39:35.112Z,3.60
2022-11-18T10:42:06.596Z,3.80
2022-11-18T10:44:42.015Z,3.60
2022-11-18T10:47:23.410Z,3.60
2022-11-18T10:49:52.356Z,3.60
2022-11-18T10:52:21.435Z,3.60
2022-11-18T10:55:20.579Z,3.60
2022-11-18T10:57:51.323Z,3.60
2022-11-18T11:00:44.841Z,3.60
2022-11-18T11:03:35.061Z,3.60
2022-11-18T11:06:38.089Z,3.60
2022-11-18T11:09:12.098Z,3.40
2022-11-18T11:11:43.675Z,3.40
2022-11-18T11:14:21.710Z,3.40
2022-11-18T11:16:59.317Z,3.50
2022-11-18T11:19:35.372Z,3.30
2022-11-18T11:22:03.772Z,3.30
2022-11-18T11:24:32.942Z,3.30
2022-11-18T11:30:19.305Z,3.40
2022-11-18T11:33:15.765Z,3.30
2022-11-18T11:35:52.266Z,3.30
2022-11-18T11:38:34.096Z,3.30
2022-11-18T11:41:11.665Z,3.40
2022-11-18T11:43:55.682Z,3.30
2022-11-18T11:46:34.046Z,3.30
2022-11-18T11:49:15.501Z,3.30
2022-11-18T11:51:51.484Z,3.30
2022-11-18T11:54:45.478Z,3.30
2022-11-18T11:57:26.270Z,3.30
2022-11-18T12:00:02.991Z,3.30
2022-11-18T12:02:47.789Z,3.30
2022-11-18T12:05:25.445Z,3.30
2022-11-18T12:07:57.949Z,3.30
2022-11-18T12:10:31.723Z,3.30
2022-11-18T12:13:19.061Z,3.30
2022-11-18T12:16:00.060Z,3.20
2022-11-18T12:18:37.085Z,3.20
2022-11-18T12:21:07.493Z,3.10
2022-11-18T12:23:36.274Z,3.00
2022-11-18T12:26:07.207Z,2.90
2022-11-18T12:28:42.137Z,2.90
2022-11-18T12:31:36.314Z,2.90
2022-11-18T12:34:18.959Z,2.90
2022-11-18T12:36:48.969Z,2.90
2022-11-18T12:39:57.204Z,2.90
2022-11-18T12:43:00.764Z,3.00
2022-11-18T12:45:53.279Z,3.00
2022-11-18T12:48:44.476Z,3.00
2022-11-18T12:51:46.380Z,3.10
2022-11-18T12:54:34.416Z,3.10
2022-11-18T12:57:05.660Z,3.10
2022-11-18T12:59:39.038Z,3.10
2022-11-18T13:02:22.339Z,3.10
2022-11-18T13:05:09.232Z,3.10
2022-11-18T13:08:02.588Z,3.10
2022-11-18T13:10:35.021Z,3.00
2022-11-18T13:13:04.029Z,3.10
2022-11-18T13:15:49.798Z,3.10
2022-11-18T13:18:20.240Z,3.00
2022-11-18T13:20:57.692Z,3.00
2022-11-18T13:23:49.753Z,3.00
2022-11-18T13:26:24.888Z,2.90
2022-11-18T13:29:06.845Z,2.80
2022-11-18T13:31:41.939Z,2.80
2022-11-18T13:34:21.268Z,2.70
2022-11-18T13:36:51.538Z,2.70
2022-11-18T13:39:24.399Z,2.60
2022-11-18T13:42:04.846Z,2.60
2022-11-18T13:44:35.251Z,2.60
2022-11-18T13:47:12.599Z,2.50
2022-11-18T13:49:53.644Z,2.60
2022-11-18T13:52:28.825Z,2.50
2022-11-18T13:55:00.214Z,2.50
2022-11-18T13:57:31.722Z,2.60
2022-11-18T14:00:07.083Z,2.60
2022-11-18T14:02:46.226Z,2.60
2022-11-18T14:05:21.888Z,2.70
2022-11-18T14:08:21.664Z,2.70
2022-11-18T14:10:50.395Z,2.80
2022-11-18T14:13:27.022Z,2.80
2022-11-18T14:15:57.234Z,2.90
2022-11-18T14:18:32.127Z,2.90
2022-11-18T14:21:02.385Z,2.90
2022-11-18T14:23:33.308Z,2.90
2022-11-18T14:26:04.823Z,2.90
2022-11-18T14:28:37.449Z,2.90
2022-11-18T14:31:21.472Z,2.90
2022-11-18T14:34:18.398Z,2.80
2022-11-18T14:36:47.916Z,2.80
2022-11-18T14:39:27.053Z,2.70
2022-11-18T14:41:56.880Z,2.70
2022-11-18T14:44:28.224Z,2.70
2022-11-18T14:47:00.312Z,2.70
2022-11-18T14:49:31.398Z,2.70
2022-11-18T14:52:02.673Z,2.70
2022-11-18T14:54:31.501Z,2.70
2022-11-18T14:57:03.851Z,2.70
2022-11-18T14:59:33.741Z,2.70
2022-11-18T15:02:02.619Z,2.60
2022-11-18T15:04:31.129Z,2.60
2022-11-18T15:06:59.812Z,2.60
2022-11-18T15:09:28.355Z,2.60
2022-11-18T15:11:56.972Z,2.70
2022-11-18T15:14:25.271Z,2.70
2022-11-18T15:16:55.829Z,2.70
2022-11-18T15:19:24.224Z,2.80
2022-11-18T15:21:52.915Z,2.80
2022-11-18T15:24:21.401Z,2.90
2022-11-18T15:26:50.700Z,3.00
2022-11-18T15:29:21.530Z,3.10
2022-11-18T15:31:50.524Z,3.10
2022-11-18T15:34:22.067Z,3.10
2022-11-18T15:36:50.899Z,3.10
2022-11-18T15:39:19.155Z,3.10
2022-11-18T15:41:47.805Z,3.10
2022-11-18T15:44:16.942Z,3.10
2022-11-18T15:46:48.028Z,3.10
2022-11-18T15:49:17.776Z,3.10
2022-11-18T15:51:47.843Z,3.10
2022-11-18T15:54:16.409Z,3.00
2022-11-18T15:56:45.359Z,3.00
2022-11-18T15:59:14.790Z,3.00
2022-11-18T16:01:44.790Z,2.90
2022-11-18T16:04:15.139Z,2.90
2022-11-18T16:06:44.534Z,2.90
2022-11-18T16:09:16.232Z,3.00
2022-11-18T16:12:05.438Z,3.00
2022-11-18T16:14:33.784Z,3.00
2022-11-18T16:17:02.375Z,3.00
2022-11-18T16:19:33.577Z,3.10
2022-11-18T16:22:02.253Z,3.10
2022-11-18T16:24:31.866Z,3.10
2022-11-18T16:27:00.488Z,3.10
2022-11-18T16:29:28.743Z,3.10
2022-11-18T16:31:57.355Z,3.20
2022-11-18T16:34:27.268Z,3.20
2022-11-18T16:36:57.268Z,3.20
2022-11-18T16:39:27.122Z,3.20
2022-11-18T16:42:06.689Z,3.20
2022-11-18T16:44:35.813Z,3.20
2022-11-18T16:47:10.516Z,3.20
2022-11-18T16:49:40.945Z,3.20
2022-11-18T16:52:10.118Z,3.20
2022-11-18T16:54:44.865Z,3.20
2022-11-18T16:57:16.328Z,3.20
2022-11-18T16:59:44.762Z,3.20
2022-11-18T17:02:14.783Z,3.20
2022-11-18T17:04:43.926Z,3.10
2022-11-18T17:07:13.017Z,3.10
2022-11-18T17:09:41.436Z,3.10
2022-11-18T17:12:10.037Z,3.10
2022-11-18T17:14:40.325Z,3.00
2022-11-18T17:17:09.565Z,3.00
2022-11-18T17:19:38.067Z,2.90
2022-11-18T17:22:07.050Z,2.90
2022-11-18T17:24:35.447Z,2.90
2022-11-18T17:27:04.279Z,2.80
2022-11-18T17:29:33.032Z,2.70
2022-11-18T17:32:02.938Z,2.70
2022-11-18T17:34:31.300Z,2.70
2022-11-18T17:37:06.146Z,2.70
2022-11-18T17:39:35.354Z,2.70
2022-11-18T17:42:17.727Z,2.60
2022-11-18T17:44:46.660Z,2.60
2022-11-18T17:47:16.655Z,2.50
2022-11-18T17:49:44.986Z,2.50
2022-11-18T17:52:13.622Z,2.40
2022-11-18T17:54:41.908Z,2.40
2022-11-18T17:57:10.702Z,2.30
2022-11-18T17:59:39.132Z,2.30
2022-11-18T18:02:08.140Z,2.10
2022-11-18T18:04:38.046Z,2.20
2022-11-18T18:07:06.799Z,2.20
2022-11-18T18:09:35.318Z,2.10
2022-11-18T18:12:24.589Z,2.10
2022-11-18T18:14:52.305Z,2.00
2022-11-18T18:17:21.275Z,2.00
2022-11-18T18:19:50.998Z,1.90
2022-11-18T18:22:19.577Z,1.90
2022-11-18T18:24:47.912Z,1.90
2022-11-18T18:27:17.228Z,1.90
2022-11-18T18:29:45.607Z,1.90
2022-11-18T18:32:14.307Z,1.90
2022-11-18T18:34:42.650Z,1.80
2022-11-18T18:37:12.665Z,1.90
2022-11-18T18:39:41.138Z,1.90
2022-11-18T18:42:09.697Z,1.90
2022-11-18T18:44:55.232Z,1.90
2022-11-18T18:47:23.836Z,1.90
2022-11-18T18:49:52.173Z,1.90
2022-11-18T18:52:22.200Z,1.80
2022-11-18T18:54:50.735Z,1.80
2022-11-18T18:57:19.900Z,1.70
2022-11-18T18:59:48.710Z,1.70
2022-11-18T19:02:17.511Z,1.60
2022-11-18T19:04:47.191Z,1.60
2022-11-18T19:07:16.859Z,1.50
2022-11-18T19:09:46.688Z,1.40
2022-11-18T19:12:32.903Z,1.30
2022-11-18T19:15:01.376Z,1.30
2022-11-18T19:17:30.193Z,1.30
2022-11-18T19:20:16.009Z,1.20
2022-11-18T19:22:44.623Z,1.20
2022-11-18T19:25:14.558Z,1.10
2022-11-18T19:27:43.285Z,1.10
2022-11-18T19:30:13.503Z,1.10
2022-11-18T19:32:43.404Z,1.00
2022-11-18T19:35:12.339Z,1.00
2022-11-18T19:37:41.132Z,1.00
2022-11-18T19:40:10.851Z,0.90
2022-11-18T19:42:42.344Z,0.90
2022-11-18T19:45:12.019Z,0.90
2022-11-18T19:47:40.972Z,0.90
2022-11-18T19:50:10.214Z,0.80
2022-11-18T19:52:38.788Z,0.80
2022-11-18T19:55:08.072Z,0.80
2022-11-18T19:57:36.607Z,0.80
2022-11-18T20:00:07.496Z,0.70
2022-11-18T20:02:36.504Z,0.70
2022-11-18T20:05:22.936Z,0.70
2022-11-18T20:07:55.366Z,0.70
2022-11-18T20:10:24.152Z,0.60
2022-11-18T20:12:52.868Z,0.60
2022-11-18T20:15:22.652Z,0.60
2022-11-18T20:17:51.160Z,0.50
2022-11-18T20:20:19.530Z,0.50
2022-11-18T20:22:48.293Z,0.50
2022-11-18T20:25:16.811Z,0.50
2022-11-18T20:27:45.395Z,0.40
2022-11-18T20:30:14.314Z,0.40
2022-11-18T20:32:46.051Z,0.40
2022-11-18T20:35:14.424Z,0.30
2022-11-18T20:37:43.567Z,0.30
2022-11-18T20:40:12.479Z,0.30
2022-11-18T20:42:58.214Z,0.20
2022-11-18T20:45:26.764Z,0.20
2022-11-18T20:47:56.889Z,0.20
2022-11-18T20:50:25.203Z,0.20
2022-11-18T20:52:53.825Z,0.10
2022-11-18T20:55:22.177Z,0.10
2022-11-18T20:57:50.849Z,0.10
2022-11-18T21:00:19.715Z,0.10
2022-11-18T21:02:48.467Z,0.00
2022-11-18T21:05:18.509Z,0.00
2022-11-18T21:07:49.137Z,0.00
2022-11-18T21:10:18.172Z,-0.10
2022-11-18T21:13:00.733Z,-0.10
2022-11-18T21:15:29.046Z,-0.10
2022-11-18T21:17:57.619Z,-0.10
2022-11-18T21:20:44.457Z,-0.20
2022-11-18T21:23:13.487Z,-0.20
2022-11-18T21:25:41.723Z,-0.30
2022-11-18T21:28:10.397Z,-0.30
2022-11-18T21:30:38.950Z,-0.40
2022-11-18T21:33:07.832Z,-0.40
2022-11-18T21:35:37.443Z,-0.40
2022-11-18T21:38:06.231Z,-0.50
2022-11-18T21:40:34.564Z,-0.50
2022-11-18T21:43:03.060Z,-0.60
2022-11-18T21:45:32.243Z,-0.60
2022-11-18T21:48:00.882Z,-0.60
2022-11-18T21:50:29.129Z,-0.60
2022-11-18T21:52:59.053Z,-0.60
2022-11-18T21:55:27.328Z,-0.70
2022-11-18T21:57:59.862Z,-0.70
2022-11-18T22:00:31.089Z,-0.70
2022-11-18T22:02:59.652Z,-0.70
2022-11-18T22:05:28.168Z,-0.80
2022-11-18T22:07:58.146Z,-0.80
2022-11-18T22:10:26.641Z,-0.90
2022-11-18T22:12:55.254Z,-0.90
2022-11-18T22:15:24.714Z,-0.90
2022-11-18T22:17:53.390Z,-1.00
2022-11-18T22:20:21.591Z,-1.00
2022-11-18T22:22:50.146Z,-1.00
2022-11-18T22:25:19.844Z,-1.10
2022-11-18T22:27:48.494Z,-1.10
2022-11-18T22:30:17.060Z,-1.10
2022-11-18T22:32:45.670Z,-1.10
2022-11-18T22:35:14.048Z,-1.20
2022-11-18T22:37:42.519Z,-1.20
2022-11-18T22:40:12.147Z,-1.30
2022-11-18T22:42:50.505Z,-1.30
2022-11-18T22:45:18.838Z,-1.40
2022-11-18T22:47:47.595Z,-1.40
2022-11-18T22:50:16.403Z,-1.40
2022-11-18T22:52:45.088Z,-1.40
2022-11-18T22:55:13.426Z,-1.40
2022-11-18T22:57:44.520Z,-1.40
2022-11-18T23:00:13.990Z,-1.40
2022-11-18T23:02:42.610Z,-1.40
2022-11-18T23:05:11.764Z,-1.40
2022-11-18T23:07:40.504Z,-1.40
2022-11-18T23:10:09.356Z,-1.40
2022-11-18T23:12:55.416Z,-1.40
2022-11-18T23:15:25.470Z,-1.40
2022-11-18T23:17:54.085Z,-1.40
2022-11-18T23:20:22.365Z,-1.50
2022-11-18T23:22:50.943Z,-1.60
2022-11-18T23:25:19.154Z,-1.60
2022-11-18T23:27:52.990Z,-1.60
2022-11-18T23:30:22.471Z,-1.60
2022-11-18T23:32:53.912Z,-1.60
2022-11-18T23:35:22.171Z,-1.70
2022-11-18T23:37:50.678Z,-1.60
2022-11-18T23:40:19.364Z,-1.70
2022-11-18T23:42:47.871Z,-1.70
2022-11-18T23:45:16.397Z,-1.70
2022-11-18T23:47:44.938Z,-1.70
2022-11-18T23:50:14.602Z,-1.80
2022-11-18T23:52:43.142Z,-1.80
2022-11-18T23:55:11.600Z,-1.80
2022-11-18T23:57:40.260Z,-1.80
